TUI272 EKYT-LPPT
Flight info
| Callsign | TUI272 |
|---|---|
| Flight time | 3h 19m |
| Altitude | 36000 |
| Route | ETVOK DCT DOROR DCT KONOM DCT NAVPI DCT BARMI P7 IDESI M40 NILON L610 GILDA L620 SAM N63 LELNA/N0449F370 DCT DEGEX DCT GATMO DCT BAKUP DCT NUBLO DCT ARDID DCT INBOM |
| Aircraft | B38M/M-SDE1FGHILORVWXY/HB1 |
Departure
| Time | 2026-04-29 15:11 |
|---|---|
| Airport | Aalborg Airport (EKYT) |
Arrival
| Time | 2026-04-29 18:31 |
|---|---|
| Airport | Lisbon Humberto Delgado Airport (LPPT) |
| Time | Latitude | Longitude | Altitude | Speed | Heading |
|---|---|---|---|---|---|
| 2026-04-29 14:52 | 57.08706 | 9.86964 | 23 ft | 0 kts | 64° |
| 2026-04-29 15:05 | 57.08708 | 9.86973 | 21 ft | 0 kts | 64° |
| 2026-04-29 15:05 | 57.08709 | 9.86977 | 23 ft | 0 kts | 64° |
| 2026-04-29 15:05 | 57.08700 | 9.86943 | 22 ft | 0 kts | 64° |
| 2026-04-29 15:05 | 57.08707 | 9.86945 | 22 ft | 1 kts | 342° |
| 2026-04-29 15:06 | 57.08710 | 9.86917 | 22 ft | 6 kts | 274° |
| 2026-04-29 15:06 | 57.08719 | 9.86781 | 21 ft | 13 kts | 304° |
| 2026-04-29 15:06 | 57.08809 | 9.86645 | 21 ft | 21 kts | 322° |
| 2026-04-29 15:06 | 57.08948 | 9.86448 | 21 ft | 29 kts | 322° |
| 2026-04-29 15:07 | 57.09128 | 9.86186 | 20 ft | 36 kts | 322° |
| 2026-04-29 15:07 | 57.09309 | 9.85944 | 20 ft | 35 kts | 325° |
| 2026-04-29 15:07 | 57.09488 | 9.85704 | 20 ft | 34 kts | 341° |
| 2026-04-29 15:07 | 57.09721 | 9.85852 | 20 ft | 39 kts | 28° |
| 2026-04-29 15:08 | 57.09767 | 9.85947 | 21 ft | 5 kts | 103° |
| 2026-04-29 15:08 | 57.09764 | 9.86034 | 20 ft | 10 kts | 86° |
| 2026-04-29 15:08 | 57.09771 | 9.86192 | 21 ft | 16 kts | 84° |
| 2026-04-29 15:08 | 57.09787 | 9.86428 | 21 ft | 22 kts | 82° |
| 2026-04-29 15:09 | 57.09806 | 9.86737 | 23 ft | 27 kts | 84° |
| 2026-04-29 15:09 | 57.09830 | 9.87119 | 21 ft | 33 kts | 83° |
| 2026-04-29 15:09 | 57.09857 | 9.87526 | 21 ft | 32 kts | 83° |
| 2026-04-29 15:09 | 57.09836 | 9.87770 | 21 ft | 19 kts | 149° |
| 2026-04-29 15:10 | 57.09701 | 9.87705 | 21 ft | 24 kts | 208° |
| 2026-04-29 15:10 | 57.09636 | 9.87481 | 19 ft | 0 kts | 264° |
| 2026-04-29 15:10 | 57.09634 | 9.87449 | 19 ft | 14 kts | 264° |
| 2026-04-29 15:10 | 57.09592 | 9.86777 | 21 ft | 90 kts | 263° |
| 2026-04-29 15:11 | 57.09489 | 9.85226 | 19 ft | 153 kts | 262° |
| 2026-04-29 15:11 | 57.09318 | 9.83017 | 192 ft | 185 kts | 261° |
| 2026-04-29 15:11 | 57.08978 | 9.80770 | 1073 ft | 180 kts | 249° |
| 2026-04-29 15:11 | 57.08509 | 9.78569 | 1855 ft | 189 kts | 252° |
| 2026-04-29 15:12 | 57.08055 | 9.76239 | 2535 ft | 200 kts | 251° |
| 2026-04-29 15:12 | 57.07736 | 9.74578 | 2881 ft | 214 kts | 251° |
| 2026-04-29 15:12 | 57.07046 | 9.70930 | 3663 ft | 240 kts | 252° |
| 2026-04-29 15:12 | 57.06485 | 9.67927 | 4289 ft | 255 kts | 253° |
| 2026-04-29 15:13 | 57.05839 | 9.64892 | 5086 ft | 262 kts | 248° |
| 2026-04-29 15:13 | 57.05198 | 9.61687 | 5740 ft | 274 kts | 250° |
| 2026-04-29 15:13 | 57.04080 | 9.58778 | 6371 ft | 288 kts | 219° |
| 2026-04-29 15:13 | 57.02393 | 9.56666 | 7060 ft | 298 kts | 215° |
| 2026-04-29 15:14 | 57.00649 | 9.54465 | 7648 ft | 311 kts | 215° |
| 2026-04-29 15:14 | 56.98833 | 9.52162 | 8225 ft | 324 kts | 215° |
| 2026-04-29 15:14 | 56.96940 | 9.49765 | 8817 ft | 336 kts | 215° |
| 2026-04-29 15:14 | 56.94982 | 9.47286 | 9416 ft | 347 kts | 215° |
| 2026-04-29 15:15 | 56.92962 | 9.44733 | 10050 ft | 357 kts | 215° |
| 2026-04-29 15:15 | 56.90890 | 9.42119 | 10635 ft | 366 kts | 215° |
| 2026-04-29 15:15 | 56.88770 | 9.39446 | 11201 ft | 373 kts | 214° |
| 2026-04-29 15:15 | 56.86605 | 9.36721 | 11788 ft | 381 kts | 214° |
| 2026-04-29 15:16 | 56.84432 | 9.33991 | 12390 ft | 387 kts | 214° |
| 2026-04-29 15:16 | 56.82195 | 9.31183 | 12976 ft | 393 kts | 214° |
| 2026-04-29 15:16 | 56.79928 | 9.28342 | 13611 ft | 397 kts | 214° |
| 2026-04-29 15:16 | 56.77639 | 9.25478 | 14259 ft | 401 kts | 214° |
| 2026-04-29 15:17 | 56.75324 | 9.22585 | 14827 ft | 405 kts | 214° |
| 2026-04-29 15:17 | 56.72991 | 9.19674 | 15419 ft | 407 kts | 214° |
| 2026-04-29 15:17 | 56.70638 | 9.16743 | 15959 ft | 411 kts | 214° |
| 2026-04-29 15:17 | 56.69071 | 9.14794 | 16327 ft | 413 kts | 214° |
| 2026-04-29 15:18 | 56.65883 | 9.10835 | 17067 ft | 417 kts | 214° |
| 2026-04-29 15:18 | 56.63480 | 9.07855 | 17653 ft | 419 kts | 215° |
| 2026-04-29 15:18 | 56.61048 | 9.04845 | 18003 ft | 428 kts | 215° |
| 2026-04-29 15:18 | 56.58555 | 9.01764 | 18212 ft | 439 kts | 215° |
| 2026-04-29 15:19 | 56.56037 | 8.98657 | 18439 ft | 447 kts | 215° |
| 2026-04-29 15:19 | 56.53437 | 8.95456 | 18656 ft | 453 kts | 215° |
| 2026-04-29 15:19 | 56.51705 | 8.93325 | 18854 ft | 454 kts | 214° |
| 2026-04-29 15:19 | 56.49083 | 8.90105 | 19084 ft | 455 kts | 214° |
| 2026-04-29 15:20 | 56.46450 | 8.86876 | 19320 ft | 456 kts | 214° |
| 2026-04-29 15:20 | 56.43812 | 8.83646 | 19536 ft | 458 kts | 214° |
| 2026-04-29 15:20 | 56.41169 | 8.80417 | 19763 ft | 459 kts | 214° |
| 2026-04-29 15:20 | 56.38521 | 8.77186 | 19995 ft | 461 kts | 214° |
| 2026-04-29 15:21 | 56.35852 | 8.73936 | 20240 ft | 463 kts | 214° |
| 2026-04-29 15:21 | 56.33182 | 8.70690 | 20505 ft | 464 kts | 214° |
| 2026-04-29 15:21 | 56.30528 | 8.67469 | 20739 ft | 466 kts | 214° |
| 2026-04-29 15:21 | 56.27802 | 8.64167 | 20987 ft | 467 kts | 214° |
| 2026-04-29 15:22 | 56.25101 | 8.60899 | 21240 ft | 469 kts | 214° |
| 2026-04-29 15:22 | 56.22389 | 8.57625 | 21467 ft | 470 kts | 214° |
| 2026-04-29 15:22 | 56.19710 | 8.54396 | 21705 ft | 470 kts | 214° |
| 2026-04-29 15:22 | 56.16985 | 8.51118 | 21962 ft | 472 kts | 214° |
| 2026-04-29 15:23 | 56.14254 | 8.47836 | 22212 ft | 474 kts | 214° |
| 2026-04-29 15:23 | 56.11511 | 8.44547 | 22473 ft | 475 kts | 214° |
| 2026-04-29 15:23 | 56.08748 | 8.41241 | 22733 ft | 477 kts | 214° |
| 2026-04-29 15:23 | 56.05985 | 8.37939 | 22995 ft | 479 kts | 214° |
| 2026-04-29 15:24 | 56.03207 | 8.34627 | 23252 ft | 481 kts | 214° |
| 2026-04-29 15:24 | 56.00424 | 8.31314 | 23526 ft | 482 kts | 214° |
| 2026-04-29 15:24 | 55.97626 | 8.27987 | 23796 ft | 484 kts | 214° |
| 2026-04-29 15:24 | 55.94817 | 8.24655 | 24057 ft | 486 kts | 214° |
| 2026-04-29 15:25 | 55.91989 | 8.21305 | 24287 ft | 488 kts | 214° |
| 2026-04-29 15:25 | 55.89158 | 8.17958 | 24513 ft | 489 kts | 214° |
| 2026-04-29 15:25 | 55.86312 | 8.14600 | 24742 ft | 491 kts | 214° |
| 2026-04-29 15:25 | 55.83466 | 8.11246 | 24971 ft | 492 kts | 214° |
| 2026-04-29 15:26 | 55.80598 | 8.07875 | 25200 ft | 494 kts | 213° |
| 2026-04-29 15:26 | 55.77724 | 8.04501 | 25433 ft | 496 kts | 213° |
| 2026-04-29 15:26 | 55.74841 | 8.01123 | 25668 ft | 497 kts | 213° |
| 2026-04-29 15:26 | 55.71952 | 7.97743 | 25904 ft | 499 kts | 213° |
| 2026-04-29 15:27 | 55.69053 | 7.94359 | 26151 ft | 500 kts | 213° |
| 2026-04-29 15:27 | 55.66133 | 7.90956 | 26385 ft | 502 kts | 213° |
| 2026-04-29 15:27 | 55.63252 | 7.87605 | 26623 ft | 504 kts | 213° |
| 2026-04-29 15:27 | 55.60278 | 7.84151 | 26875 ft | 505 kts | 213° |
| 2026-04-29 15:28 | 55.57380 | 7.80793 | 27099 ft | 503 kts | 213° |
| 2026-04-29 15:28 | 55.55402 | 7.78503 | 27271 ft | 501 kts | 213° |
| 2026-04-29 15:28 | 55.51544 | 7.74047 | 27592 ft | 500 kts | 213° |
| 2026-04-29 15:28 | 55.48623 | 7.70679 | 27845 ft | 500 kts | 213° |
| 2026-04-29 15:29 | 55.45715 | 7.67332 | 28100 ft | 499 kts | 213° |
| 2026-04-29 15:29 | 55.39899 | 7.60658 | 28617 ft | 498 kts | 213° |
| 2026-04-29 15:30 | 55.34090 | 7.54015 | 29139 ft | 498 kts | 213° |
| 2026-04-29 15:30 | 55.31179 | 7.50695 | 29415 ft | 497 kts | 213° |
| 2026-04-29 15:30 | 55.28282 | 7.47396 | 29677 ft | 497 kts | 213° |
| 2026-04-29 15:30 | 55.25381 | 7.44100 | 29955 ft | 497 kts | 213° |
| 2026-04-29 15:31 | 55.22517 | 7.40850 | 30233 ft | 497 kts | 212° |
| 2026-04-29 15:31 | 55.19606 | 7.37552 | 30508 ft | 496 kts | 212° |
| 2026-04-29 15:31 | 55.16705 | 7.34272 | 30749 ft | 496 kts | 212° |
| 2026-04-29 15:31 | 55.13812 | 7.31004 | 30978 ft | 495 kts | 212° |
| 2026-04-29 15:32 | 55.10920 | 7.27743 | 31217 ft | 495 kts | 212° |
| 2026-04-29 15:32 | 55.08023 | 7.24483 | 31458 ft | 494 kts | 212° |
| 2026-04-29 15:32 | 55.05131 | 7.21233 | 31696 ft | 494 kts | 212° |
| 2026-04-29 15:32 | 55.02250 | 7.18002 | 31938 ft | 493 kts | 212° |
| 2026-04-29 15:33 | 54.99408 | 7.14639 | 32179 ft | 493 kts | 216° |
| 2026-04-29 15:33 | 54.96645 | 7.11075 | 32431 ft | 493 kts | 216° |
| 2026-04-29 15:33 | 54.93879 | 7.07558 | 32662 ft | 492 kts | 215° |
| 2026-04-29 15:33 | 54.91119 | 7.04079 | 32910 ft | 488 kts | 215° |
| 2026-04-29 15:34 | 54.88375 | 7.00633 | 33162 ft | 487 kts | 215° |
| 2026-04-29 15:34 | 54.85626 | 6.97186 | 33411 ft | 486 kts | 215° |
| 2026-04-29 15:34 | 54.82880 | 6.93750 | 33666 ft | 486 kts | 215° |
| 2026-04-29 15:34 | 54.80176 | 6.90371 | 33927 ft | 485 kts | 215° |
| 2026-04-29 15:35 | 54.77439 | 6.86957 | 34183 ft | 484 kts | 214° |
| 2026-04-29 15:35 | 54.74705 | 6.83553 | 34440 ft | 483 kts | 214° |
| 2026-04-29 15:35 | 54.71978 | 6.80162 | 34677 ft | 481 kts | 214° |
| 2026-04-29 15:35 | 54.69265 | 6.76795 | 34915 ft | 480 kts | 215° |
| 2026-04-29 15:36 | 54.66557 | 6.73441 | 35121 ft | 478 kts | 215° |
| 2026-04-29 15:36 | 54.63852 | 6.70095 | 35359 ft | 476 kts | 215° |
| 2026-04-29 15:36 | 54.61156 | 6.66767 | 35504 ft | 476 kts | 215° |
| 2026-04-29 15:37 | 54.55723 | 6.60077 | 35470 ft | 482 kts | 215° |
| 2026-04-29 15:37 | 54.50295 | 6.53413 | 35470 ft | 482 kts | 215° |
| 2026-04-29 15:38 | 54.44817 | 6.46711 | 35470 ft | 482 kts | 214° |
| 2026-04-29 15:38 | 54.39352 | 6.40048 | 35456 ft | 481 kts | 214° |
| 2026-04-29 15:39 | 54.33903 | 6.33425 | 35463 ft | 478 kts | 214° |
| 2026-04-29 15:39 | 54.28468 | 6.26842 | 35477 ft | 479 kts | 214° |
| 2026-04-29 15:40 | 54.23046 | 6.20296 | 35467 ft | 479 kts | 214° |
| 2026-04-29 15:40 | 54.17581 | 6.13721 | 35458 ft | 479 kts | 214° |
| 2026-04-29 15:41 | 54.12130 | 6.07183 | 35464 ft | 479 kts | 214° |
| 2026-04-29 15:41 | 54.06664 | 6.00648 | 35463 ft | 480 kts | 214° |
| 2026-04-29 15:42 | 54.01215 | 5.94155 | 35459 ft | 481 kts | 214° |
| 2026-04-29 15:42 | 53.95722 | 5.87632 | 35458 ft | 481 kts | 213° |
| 2026-04-29 15:43 | 53.90255 | 5.81160 | 35448 ft | 481 kts | 213° |
| 2026-04-29 15:43 | 53.84776 | 5.74696 | 35442 ft | 480 kts | 213° |
| 2026-04-29 15:44 | 53.79301 | 5.68257 | 35443 ft | 478 kts | 213° |
| 2026-04-29 15:44 | 53.73837 | 5.61849 | 35447 ft | 478 kts | 213° |
| 2026-04-29 15:45 | 53.68364 | 5.55449 | 35443 ft | 478 kts | 213° |
| 2026-04-29 15:45 | 53.63155 | 5.48538 | 35407 ft | 478 kts | 231° |
| 2026-04-29 15:46 | 53.59363 | 5.39319 | 35403 ft | 481 kts | 236° |
| 2026-04-29 15:46 | 53.55653 | 5.29930 | 35430 ft | 481 kts | 236° |
| 2026-04-29 15:47 | 53.51995 | 5.20601 | 35429 ft | 481 kts | 236° |
| 2026-04-29 15:47 | 53.48312 | 5.11232 | 35457 ft | 480 kts | 236° |
| 2026-04-29 15:48 | 53.44629 | 5.01895 | 35409 ft | 478 kts | 236° |
| 2026-04-29 15:48 | 53.40939 | 4.92577 | 35401 ft | 479 kts | 236° |
| 2026-04-29 15:49 | 53.37271 | 4.83348 | 35410 ft | 479 kts | 236° |
| 2026-04-29 15:49 | 53.33567 | 4.74060 | 35416 ft | 478 kts | 236° |
| 2026-04-29 15:50 | 53.29860 | 4.64804 | 35391 ft | 478 kts | 236° |
| 2026-04-29 15:50 | 53.26153 | 4.55576 | 35420 ft | 479 kts | 236° |
| 2026-04-29 15:51 | 53.22443 | 4.46378 | 35416 ft | 478 kts | 236° |
| 2026-04-29 15:51 | 53.18700 | 4.37131 | 35411 ft | 478 kts | 235° |
| 2026-04-29 15:52 | 53.14989 | 4.27996 | 35400 ft | 479 kts | 235° |
| 2026-04-29 15:52 | 53.11243 | 4.18809 | 35400 ft | 480 kts | 235° |
| 2026-04-29 15:53 | 53.07488 | 4.09633 | 35385 ft | 479 kts | 235° |
| 2026-04-29 15:53 | 53.03730 | 4.00482 | 35390 ft | 477 kts | 234° |
| 2026-04-29 15:54 | 52.99990 | 3.91408 | 35389 ft | 476 kts | 234° |
| 2026-04-29 15:54 | 52.96068 | 3.82558 | 35389 ft | 476 kts | 232° |
| 2026-04-29 15:55 | 52.92114 | 3.73729 | 35377 ft | 477 kts | 232° |
| 2026-04-29 15:55 | 52.88179 | 3.64953 | 35375 ft | 477 kts | 232° |
| 2026-04-29 15:56 | 52.84192 | 3.56093 | 35389 ft | 477 kts | 232° |
| 2026-04-29 15:56 | 52.80247 | 3.47354 | 35375 ft | 475 kts | 231° |
| 2026-04-29 15:57 | 52.76298 | 3.38636 | 35356 ft | 473 kts | 231° |
| 2026-04-29 15:57 | 52.72345 | 3.29942 | 35356 ft | 474 kts | 231° |
| 2026-04-29 15:58 | 52.68382 | 3.21251 | 35346 ft | 473 kts | 231° |
| 2026-04-29 15:58 | 52.64447 | 3.12655 | 35360 ft | 473 kts | 231° |
| 2026-04-29 15:59 | 52.60451 | 3.03953 | 35350 ft | 473 kts | 231° |
| 2026-04-29 15:59 | 52.56515 | 2.95411 | 35351 ft | 471 kts | 231° |
| 2026-04-29 16:00 | 52.52565 | 2.86868 | 35338 ft | 468 kts | 231° |
| 2026-04-29 16:00 | 52.48608 | 2.78339 | 35358 ft | 469 kts | 230° |
| 2026-04-29 16:01 | 52.44647 | 2.69828 | 35350 ft | 469 kts | 230° |
| 2026-04-29 16:01 | 52.40674 | 2.61323 | 35333 ft | 469 kts | 230° |
| 2026-04-29 16:02 | 52.36722 | 2.52887 | 35334 ft | 469 kts | 230° |
| 2026-04-29 16:02 | 52.32740 | 2.44419 | 35327 ft | 468 kts | 230° |
| 2026-04-29 16:03 | 52.28787 | 2.36037 | 35326 ft | 465 kts | 230° |
| 2026-04-29 16:03 | 52.24829 | 2.27674 | 35330 ft | 465 kts | 230° |
| 2026-04-29 16:04 | 52.20870 | 2.19334 | 35318 ft | 464 kts | 229° |
| 2026-04-29 16:04 | 52.16913 | 2.11026 | 35318 ft | 464 kts | 229° |
| 2026-04-29 16:05 | 52.13611 | 2.04115 | 35318 ft | 464 kts | 229° |
| 2026-04-29 16:05 | 52.08987 | 1.94469 | 35323 ft | 464 kts | 229° |
| 2026-04-29 16:06 | 52.05032 | 1.86245 | 35306 ft | 460 kts | 229° |
| 2026-04-29 16:06 | 52.01739 | 1.79421 | 35323 ft | 460 kts | 229° |
| 2026-04-29 16:07 | 51.97790 | 1.71258 | 35317 ft | 460 kts | 229° |
| 2026-04-29 16:07 | 51.93831 | 1.63101 | 35303 ft | 459 kts | 228° |
| 2026-04-29 16:08 | 51.89892 | 1.55014 | 35298 ft | 459 kts | 229° |
| 2026-04-29 16:08 | 51.85927 | 1.46896 | 35300 ft | 460 kts | 229° |
| 2026-04-29 16:09 | 51.81967 | 1.38813 | 35289 ft | 456 kts | 229° |
| 2026-04-29 16:09 | 51.78018 | 1.30777 | 35273 ft | 457 kts | 228° |
| 2026-04-29 16:10 | 51.74037 | 1.22708 | 35297 ft | 459 kts | 229° |
| 2026-04-29 16:10 | 51.70062 | 1.14670 | 35288 ft | 458 kts | 227° |
| 2026-04-29 16:11 | 51.66103 | 1.06688 | 35279 ft | 458 kts | 227° |
| 2026-04-29 16:11 | 51.62108 | 0.98664 | 35274 ft | 458 kts | 227° |
| 2026-04-29 16:12 | 51.58117 | 0.90674 | 35295 ft | 457 kts | 229° |
| 2026-04-29 16:12 | 51.54137 | 0.82730 | 35301 ft | 456 kts | 229° |
| 2026-04-29 16:13 | 51.50159 | 0.74809 | 35286 ft | 455 kts | 230° |
| 2026-04-29 16:13 | 51.46179 | 0.66911 | 35292 ft | 455 kts | 229° |
| 2026-04-29 16:14 | 51.42184 | 0.59011 | 35295 ft | 456 kts | 230° |
| 2026-04-29 16:14 | 51.38202 | 0.51157 | 35270 ft | 456 kts | 229° |
| 2026-04-29 16:15 | 51.34229 | 0.43343 | 35277 ft | 450 kts | 229° |
| 2026-04-29 16:15 | 51.30262 | 0.35569 | 35378 ft | 452 kts | 229° |
| 2026-04-29 16:16 | 51.26264 | 0.27758 | 35387 ft | 454 kts | 230° |
| 2026-04-29 16:16 | 51.22262 | 0.19959 | 35361 ft | 454 kts | 230° |
| 2026-04-29 16:17 | 51.18256 | 0.12178 | 35332 ft | 453 kts | 229° |
| 2026-04-29 16:17 | 51.14250 | 0.04422 | 35309 ft | 453 kts | 229° |
| 2026-04-29 16:18 | 51.10240 | -0.03321 | 35283 ft | 452 kts | 228° |
| 2026-04-29 16:18 | 51.06286 | -0.10934 | 35235 ft | 442 kts | 228° |
| 2026-04-29 16:19 | 51.02360 | -0.18466 | 35234 ft | 443 kts | 229° |
| 2026-04-29 16:19 | 50.98432 | -0.25984 | 35188 ft | 442 kts | 229° |
| 2026-04-29 16:20 | 50.94492 | -0.33501 | 35187 ft | 442 kts | 229° |
| 2026-04-29 16:20 | 50.90548 | -0.41005 | 35184 ft | 443 kts | 229° |
| 2026-04-29 16:21 | 50.86592 | -0.48509 | 35183 ft | 443 kts | 229° |
| 2026-04-29 16:21 | 50.82645 | -0.55973 | 35186 ft | 446 kts | 229° |
| 2026-04-29 16:22 | 50.78661 | -0.63491 | 35183 ft | 445 kts | 228° |
| 2026-04-29 16:22 | 50.74674 | -0.70989 | 35171 ft | 446 kts | 228° |
| 2026-04-29 16:23 | 50.70678 | -0.78477 | 35166 ft | 446 kts | 229° |
| 2026-04-29 16:23 | 50.66684 | -0.85945 | 35155 ft | 446 kts | 228° |
| 2026-04-29 16:24 | 50.62677 | -0.93419 | 35175 ft | 445 kts | 226° |
| 2026-04-29 16:24 | 50.58706 | -1.00795 | 35150 ft | 438 kts | 226° |
| 2026-04-29 16:25 | 50.54794 | -1.08048 | 35132 ft | 437 kts | 227° |
| 2026-04-29 16:25 | 50.50844 | -1.15349 | 35152 ft | 438 kts | 226° |
| 2026-04-29 16:26 | 50.46899 | -1.22620 | 35143 ft | 438 kts | 228° |
| 2026-04-29 16:26 | 50.42940 | -1.29895 | 35126 ft | 437 kts | 227° |
| 2026-04-29 16:27 | 50.38980 | -1.37153 | 35122 ft | 435 kts | 226° |
| 2026-04-29 16:27 | 50.35043 | -1.44351 | 35120 ft | 434 kts | 225° |
| 2026-04-29 16:28 | 50.31118 | -1.51500 | 35103 ft | 433 kts | 225° |
| 2026-04-29 16:28 | 50.27191 | -1.58642 | 35101 ft | 432 kts | 225° |
| 2026-04-29 16:29 | 50.23281 | -1.65728 | 35116 ft | 433 kts | 225° |
| 2026-04-29 16:29 | 50.19353 | -1.72827 | 35097 ft | 433 kts | 225° |
| 2026-04-29 16:30 | 50.15404 | -1.79942 | 35079 ft | 433 kts | 226° |
| 2026-04-29 16:30 | 50.11441 | -1.87072 | 35109 ft | 434 kts | 224° |
| 2026-04-29 16:31 | 50.07494 | -1.94146 | 35096 ft | 433 kts | 224° |
| 2026-04-29 16:31 | 50.03543 | -2.01207 | 35073 ft | 432 kts | 225° |
| 2026-04-29 16:32 | 49.99521 | -2.08179 | 35065 ft | 429 kts | 216° |
| 2026-04-29 16:32 | 49.97079 | -2.10692 | 35033 ft | 418 kts | 201° |
| 2026-04-29 16:32 | 49.94377 | -2.12287 | 35132 ft | 417 kts | 197° |
| 2026-04-29 16:33 | 49.86098 | -2.16588 | 35065 ft | 422 kts | 195° |
| 2026-04-29 16:33 | 49.80526 | -2.19331 | 35036 ft | 418 kts | 195° |
| 2026-04-29 16:34 | 49.74931 | -2.22057 | 35051 ft | 421 kts | 195° |
| 2026-04-29 16:34 | 49.69357 | -2.24768 | 35043 ft | 420 kts | 195° |
| 2026-04-29 16:35 | 49.63795 | -2.27466 | 35042 ft | 419 kts | 195° |
| 2026-04-29 16:35 | 49.58250 | -2.30149 | 35050 ft | 419 kts | 195° |
| 2026-04-29 16:36 | 49.52679 | -2.32838 | 35041 ft | 418 kts | 195° |
| 2026-04-29 16:36 | 49.47116 | -2.35518 | 35026 ft | 419 kts | 196° |
| 2026-04-29 16:37 | 49.41555 | -2.38189 | 35021 ft | 419 kts | 196° |
| 2026-04-29 16:37 | 49.36931 | -2.40406 | 35020 ft | 419 kts | 196° |
| 2026-04-29 16:38 | 49.30457 | -2.43502 | 35017 ft | 419 kts | 196° |
| 2026-04-29 16:38 | 49.24896 | -2.46156 | 35018 ft | 418 kts | 196° |
| 2026-04-29 16:39 | 49.19345 | -2.48797 | 34995 ft | 417 kts | 196° |
| 2026-04-29 16:39 | 49.13794 | -2.51433 | 34991 ft | 417 kts | 196° |
| 2026-04-29 16:40 | 49.08233 | -2.54067 | 34992 ft | 417 kts | 196° |
| 2026-04-29 16:40 | 49.02692 | -2.56686 | 34988 ft | 413 kts | 196° |
| 2026-04-29 16:41 | 48.97261 | -2.59247 | 34984 ft | 410 kts | 196° |
| 2026-04-29 16:41 | 48.91796 | -2.61818 | 34985 ft | 411 kts | 196° |
| 2026-04-29 16:42 | 48.86344 | -2.64376 | 34990 ft | 408 kts | 196° |
| 2026-04-29 16:42 | 48.80936 | -2.66909 | 34977 ft | 406 kts | 196° |
| 2026-04-29 16:43 | 48.75521 | -2.69439 | 34976 ft | 407 kts | 196° |
| 2026-04-29 16:43 | 48.70107 | -2.71962 | 34971 ft | 407 kts | 196° |
| 2026-04-29 16:44 | 48.64684 | -2.74485 | 34968 ft | 407 kts | 196° |
| 2026-04-29 16:44 | 48.59296 | -2.76985 | 34965 ft | 406 kts | 196° |
| 2026-04-29 16:45 | 48.53902 | -2.79483 | 34973 ft | 406 kts | 196° |
| 2026-04-29 16:45 | 48.48500 | -2.81979 | 34965 ft | 406 kts | 196° |
| 2026-04-29 16:46 | 48.43087 | -2.84474 | 34962 ft | 406 kts | 196° |
| 2026-04-29 16:46 | 48.37715 | -2.86945 | 34962 ft | 406 kts | 196° |
| 2026-04-29 16:47 | 48.32305 | -2.89427 | 34959 ft | 406 kts | 196° |
| 2026-04-29 16:47 | 48.26928 | -2.91890 | 34954 ft | 406 kts | 196° |
| 2026-04-29 16:48 | 48.21520 | -2.94361 | 34959 ft | 406 kts | 196° |
| 2026-04-29 16:48 | 48.16108 | -2.96828 | 34952 ft | 405 kts | 196° |
| 2026-04-29 16:49 | 48.11627 | -2.98867 | 34980 ft | 405 kts | 195° |
| 2026-04-29 16:49 | 48.06251 | -3.01307 | 34944 ft | 403 kts | 195° |
| 2026-04-29 16:50 | 48.00881 | -3.03741 | 34945 ft | 403 kts | 195° |
| 2026-04-29 16:50 | 47.95503 | -3.06172 | 34938 ft | 403 kts | 195° |
| 2026-04-29 16:51 | 47.90140 | -3.08593 | 34938 ft | 402 kts | 195° |
| 2026-04-29 16:51 | 47.84783 | -3.11005 | 34936 ft | 402 kts | 195° |
| 2026-04-29 16:52 | 47.79446 | -3.13404 | 34936 ft | 402 kts | 195° |
| 2026-04-29 16:52 | 47.74073 | -3.15720 | 34934 ft | 401 kts | 191° |
| 2026-04-29 16:53 | 47.68597 | -3.17485 | 34927 ft | 402 kts | 192° |
| 2026-04-29 16:53 | 47.63178 | -3.19296 | 34944 ft | 402 kts | 192° |
| 2026-04-29 16:54 | 47.57718 | -3.21130 | 34930 ft | 401 kts | 192° |
| 2026-04-29 16:54 | 47.52259 | -3.22962 | 34930 ft | 402 kts | 192° |
| 2026-04-29 16:55 | 47.46826 | -3.24780 | 34922 ft | 402 kts | 192° |
| 2026-04-29 16:55 | 47.41357 | -3.26607 | 34919 ft | 402 kts | 192° |
| 2026-04-29 16:56 | 47.35892 | -3.28429 | 34910 ft | 402 kts | 192° |
| 2026-04-29 16:56 | 47.30430 | -3.30246 | 34917 ft | 403 kts | 192° |
| 2026-04-29 16:57 | 47.24949 | -3.32065 | 34928 ft | 403 kts | 192° |
| 2026-04-29 16:57 | 47.19478 | -3.33877 | 34915 ft | 403 kts | 191° |
| 2026-04-29 16:58 | 47.14002 | -3.35687 | 34912 ft | 403 kts | 191° |
| 2026-04-29 16:58 | 47.08533 | -3.37491 | 34908 ft | 402 kts | 192° |
| 2026-04-29 16:59 | 47.03099 | -3.39279 | 34906 ft | 402 kts | 192° |
| 2026-04-29 16:59 | 46.97631 | -3.41075 | 34907 ft | 402 kts | 192° |
| 2026-04-29 17:00 | 46.92162 | -3.42867 | 34905 ft | 403 kts | 192° |
| 2026-04-29 17:00 | 46.86690 | -3.44657 | 34909 ft | 403 kts | 192° |
| 2026-04-29 17:01 | 46.81209 | -3.46446 | 34901 ft | 403 kts | 192° |
| 2026-04-29 17:01 | 46.75766 | -3.48219 | 34899 ft | 403 kts | 192° |
| 2026-04-29 17:02 | 46.70290 | -3.49999 | 34895 ft | 403 kts | 192° |
| 2026-04-29 17:02 | 46.64812 | -3.51775 | 34893 ft | 403 kts | 192° |
| 2026-04-29 17:03 | 46.59326 | -3.53551 | 34890 ft | 403 kts | 192° |
| 2026-04-29 17:03 | 46.53849 | -3.55320 | 34892 ft | 403 kts | 192° |
| 2026-04-29 17:04 | 46.48370 | -3.57087 | 34891 ft | 404 kts | 192° |
| 2026-04-29 17:04 | 46.42878 | -3.58853 | 34896 ft | 404 kts | 192° |
| 2026-04-29 17:05 | 46.37414 | -3.60607 | 34885 ft | 404 kts | 192° |
| 2026-04-29 17:05 | 46.31924 | -3.62365 | 34885 ft | 402 kts | 192° |
| 2026-04-29 17:06 | 46.26461 | -3.64112 | 34885 ft | 402 kts | 192° |
| 2026-04-29 17:06 | 46.20998 | -3.65855 | 34883 ft | 402 kts | 192° |
| 2026-04-29 17:07 | 46.15531 | -3.67596 | 34880 ft | 402 kts | 192° |
| 2026-04-29 17:07 | 46.10097 | -3.69323 | 34875 ft | 402 kts | 192° |
| 2026-04-29 17:08 | 46.04624 | -3.71063 | 34875 ft | 402 kts | 193° |
| 2026-04-29 17:08 | 45.99280 | -3.73539 | 34873 ft | 403 kts | 197° |
| 2026-04-29 17:09 | 45.93967 | -3.75994 | 34883 ft | 403 kts | 196° |
| 2026-04-29 17:09 | 45.88610 | -3.78435 | 34865 ft | 404 kts | 196° |
| 2026-04-29 17:10 | 45.83231 | -3.80877 | 34866 ft | 405 kts | 196° |
| 2026-04-29 17:10 | 45.77855 | -3.83313 | 34875 ft | 405 kts | 196° |
| 2026-04-29 17:11 | 45.72485 | -3.85741 | 34878 ft | 405 kts | 196° |
| 2026-04-29 17:11 | 45.67102 | -3.88171 | 34880 ft | 407 kts | 196° |
| 2026-04-29 17:12 | 45.61689 | -3.90609 | 34875 ft | 407 kts | 196° |
| 2026-04-29 17:12 | 45.57205 | -3.92624 | 34872 ft | 405 kts | 196° |
| 2026-04-29 17:13 | 45.50937 | -3.95436 | 34868 ft | 404 kts | 196° |
| 2026-04-29 17:13 | 45.45583 | -3.97833 | 34858 ft | 403 kts | 196° |
| 2026-04-29 17:14 | 45.40266 | -4.00208 | 34860 ft | 403 kts | 196° |
| 2026-04-29 17:14 | 45.34908 | -4.02598 | 34857 ft | 403 kts | 196° |
| 2026-04-29 17:15 | 45.29550 | -4.04982 | 34853 ft | 403 kts | 196° |
| 2026-04-29 17:15 | 45.24181 | -4.07367 | 34858 ft | 404 kts | 196° |
| 2026-04-29 17:16 | 45.18842 | -4.09733 | 34857 ft | 404 kts | 196° |
| 2026-04-29 17:16 | 45.13468 | -4.12110 | 34853 ft | 404 kts | 196° |
| 2026-04-29 17:17 | 45.08090 | -4.14485 | 34852 ft | 405 kts | 196° |
| 2026-04-29 17:17 | 45.02689 | -4.16864 | 34850 ft | 406 kts | 196° |
| 2026-04-29 17:18 | 44.97295 | -4.19237 | 34848 ft | 406 kts | 196° |
| 2026-04-29 17:18 | 44.91929 | -4.21591 | 34849 ft | 406 kts | 196° |
| 2026-04-29 17:19 | 44.86508 | -4.23966 | 34849 ft | 407 kts | 196° |
| 2026-04-29 17:19 | 44.81092 | -4.26334 | 34848 ft | 407 kts | 196° |
| 2026-04-29 17:20 | 44.75674 | -4.28698 | 34844 ft | 407 kts | 196° |
| 2026-04-29 17:20 | 44.70260 | -4.31055 | 34846 ft | 407 kts | 196° |
| 2026-04-29 17:21 | 44.64882 | -4.33392 | 34843 ft | 407 kts | 196° |
| 2026-04-29 17:21 | 44.59466 | -4.35742 | 34841 ft | 407 kts | 196° |
| 2026-04-29 17:22 | 44.54051 | -4.38086 | 34841 ft | 407 kts | 196° |
| 2026-04-29 17:22 | 44.48633 | -4.40428 | 34845 ft | 408 kts | 196° |
| 2026-04-29 17:23 | 44.43199 | -4.42773 | 34831 ft | 408 kts | 196° |
| 2026-04-29 17:23 | 44.37691 | -4.44655 | 34845 ft | 407 kts | 192° |
| 2026-04-29 17:24 | 44.32198 | -4.46422 | 34840 ft | 408 kts | 193° |
| 2026-04-29 17:24 | 44.26667 | -4.48221 | 34835 ft | 408 kts | 193° |
| 2026-04-29 17:25 | 44.21130 | -4.50020 | 34833 ft | 408 kts | 193° |
| 2026-04-29 17:25 | 44.15599 | -4.51814 | 34835 ft | 408 kts | 193° |
| 2026-04-29 17:26 | 44.10050 | -4.53611 | 34837 ft | 409 kts | 193° |
| 2026-04-29 17:26 | 44.04500 | -4.55405 | 34826 ft | 409 kts | 193° |
| 2026-04-29 17:27 | 43.98945 | -4.57196 | 34827 ft | 409 kts | 193° |
| 2026-04-29 17:27 | 43.93431 | -4.58971 | 34820 ft | 408 kts | 192° |
| 2026-04-29 17:28 | 43.87885 | -4.60754 | 34827 ft | 409 kts | 192° |
| 2026-04-29 17:28 | 43.82336 | -4.62533 | 34825 ft | 409 kts | 192° |
| 2026-04-29 17:29 | 43.76780 | -4.64312 | 34826 ft | 409 kts | 192° |
| 2026-04-29 17:29 | 43.72161 | -4.65787 | 34819 ft | 410 kts | 192° |
| 2026-04-29 17:30 | 43.65651 | -4.67863 | 34828 ft | 411 kts | 192° |
| 2026-04-29 17:30 | 43.60110 | -4.69627 | 34830 ft | 411 kts | 192° |
| 2026-04-29 17:31 | 43.54543 | -4.71395 | 34830 ft | 411 kts | 192° |
| 2026-04-29 17:31 | 43.48969 | -4.73162 | 34825 ft | 411 kts | 192° |
| 2026-04-29 17:32 | 43.43393 | -4.74927 | 34827 ft | 411 kts | 192° |
| 2026-04-29 17:32 | 43.37816 | -4.76689 | 34826 ft | 411 kts | 192° |
| 2026-04-29 17:33 | 43.32238 | -4.78447 | 34850 ft | 411 kts | 192° |
| 2026-04-29 17:33 | 43.26670 | -4.80199 | 34813 ft | 410 kts | 192° |
| 2026-04-29 17:34 | 43.21097 | -4.81949 | 34822 ft | 411 kts | 192° |
| 2026-04-29 17:34 | 43.15531 | -4.83695 | 34855 ft | 411 kts | 192° |
| 2026-04-29 17:35 | 43.07183 | -4.86305 | 34851 ft | 412 kts | 192° |
| 2026-04-29 17:36 | 43.02505 | -4.87765 | 34844 ft | 412 kts | 192° |
| 2026-04-29 17:36 | 42.96951 | -4.89495 | 34855 ft | 412 kts | 192° |
| 2026-04-29 17:37 | 42.91353 | -4.91236 | 34844 ft | 411 kts | 192° |
| 2026-04-29 17:37 | 42.85758 | -4.92973 | 34860 ft | 413 kts | 192° |
| 2026-04-29 17:38 | 42.80158 | -4.94708 | 34861 ft | 412 kts | 192° |
| 2026-04-29 17:38 | 42.74553 | -4.96442 | 34864 ft | 414 kts | 192° |
| 2026-04-29 17:39 | 42.68915 | -4.98184 | 34864 ft | 415 kts | 193° |
| 2026-04-29 17:39 | 42.66208 | -4.99506 | 34837 ft | 415 kts | 208° |
| 2026-04-29 17:39 | 42.63759 | -5.01598 | 34889 ft | 417 kts | 210° |
| 2026-04-29 17:40 | 42.58849 | -5.05832 | 34856 ft | 418 kts | 211° |
| 2026-04-29 17:40 | 42.53997 | -5.10109 | 34857 ft | 418 kts | 211° |
| 2026-04-29 17:41 | 42.49119 | -5.14428 | 34849 ft | 418 kts | 211° |
| 2026-04-29 17:41 | 42.44239 | -5.18744 | 34856 ft | 419 kts | 211° |
| 2026-04-29 17:42 | 42.39340 | -5.23069 | 34855 ft | 419 kts | 211° |
| 2026-04-29 17:42 | 42.34455 | -5.27373 | 34858 ft | 419 kts | 211° |
| 2026-04-29 17:43 | 42.29595 | -5.31648 | 34856 ft | 419 kts | 211° |
| 2026-04-29 17:43 | 42.24693 | -5.35952 | 34857 ft | 421 kts | 211° |
| 2026-04-29 17:44 | 42.19763 | -5.40271 | 34853 ft | 422 kts | 211° |
| 2026-04-29 17:44 | 42.14835 | -5.44580 | 34852 ft | 422 kts | 211° |
| 2026-04-29 17:45 | 42.09932 | -5.48860 | 34850 ft | 422 kts | 211° |
| 2026-04-29 17:45 | 42.04973 | -5.53181 | 34854 ft | 422 kts | 212° |
| 2026-04-29 17:46 | 42.00084 | -5.57432 | 34853 ft | 421 kts | 212° |
| 2026-04-29 17:46 | 41.95156 | -5.61709 | 34854 ft | 421 kts | 212° |
| 2026-04-29 17:47 | 41.90227 | -5.65980 | 34850 ft | 421 kts | 211° |
| 2026-04-29 17:47 | 41.85300 | -5.70241 | 34850 ft | 421 kts | 211° |
| 2026-04-29 17:48 | 41.80363 | -5.74502 | 34858 ft | 423 kts | 212° |
| 2026-04-29 17:48 | 41.75400 | -5.78778 | 34852 ft | 423 kts | 212° |
| 2026-04-29 17:49 | 41.70445 | -5.83040 | 34852 ft | 423 kts | 212° |
| 2026-04-29 17:49 | 41.65479 | -5.87302 | 34852 ft | 424 kts | 212° |
| 2026-04-29 17:50 | 41.60514 | -5.91556 | 34847 ft | 424 kts | 212° |
| 2026-04-29 17:50 | 41.55578 | -5.95777 | 34855 ft | 424 kts | 212° |
| 2026-04-29 17:51 | 41.50606 | -6.00021 | 34854 ft | 424 kts | 212° |
| 2026-04-29 17:51 | 41.45609 | -6.04279 | 34855 ft | 424 kts | 212° |
| 2026-04-29 17:52 | 41.40670 | -6.08479 | 34857 ft | 424 kts | 212° |
| 2026-04-29 17:52 | 41.35676 | -6.12718 | 34857 ft | 427 kts | 212° |
| 2026-04-29 17:53 | 41.30664 | -6.16966 | 34852 ft | 427 kts | 212° |
| 2026-04-29 17:53 | 41.25650 | -6.21208 | 34856 ft | 427 kts | 212° |
| 2026-04-29 17:54 | 41.20633 | -6.25445 | 34740 ft | 429 kts | 212° |
| 2026-04-29 17:54 | 41.18167 | -6.27644 | 34242 ft | 425 kts | 220° |
| 2026-04-29 17:54 | 41.16172 | -6.30513 | 33653 ft | 425 kts | 232° |
| 2026-04-29 17:54 | 41.14369 | -6.33641 | 33055 ft | 428 kts | 231° |
| 2026-04-29 17:55 | 41.12563 | -6.36772 | 32441 ft | 430 kts | 231° |
| 2026-04-29 17:55 | 41.10748 | -6.39955 | 31837 ft | 433 kts | 231° |
| 2026-04-29 17:55 | 41.08934 | -6.43157 | 31232 ft | 435 kts | 231° |
| 2026-04-29 17:55 | 41.07116 | -6.46375 | 30656 ft | 438 kts | 231° |
| 2026-04-29 17:56 | 41.05283 | -6.49620 | 30077 ft | 442 kts | 231° |
| 2026-04-29 17:56 | 41.03428 | -6.52898 | 29391 ft | 446 kts | 231° |
| 2026-04-29 17:56 | 41.01565 | -6.56190 | 28694 ft | 449 kts | 231° |
| 2026-04-29 17:56 | 40.99711 | -6.59463 | 28029 ft | 450 kts | 231° |
| 2026-04-29 17:57 | 40.97830 | -6.62778 | 27371 ft | 452 kts | 231° |
| 2026-04-29 17:57 | 40.95936 | -6.66114 | 26722 ft | 454 kts | 232° |
| 2026-04-29 17:57 | 40.94035 | -6.69458 | 26087 ft | 455 kts | 232° |
| 2026-04-29 17:57 | 40.92746 | -6.71722 | 25692 ft | 456 kts | 232° |
| 2026-04-29 17:58 | 40.90224 | -6.76150 | 25025 ft | 453 kts | 231° |
| 2026-04-29 17:58 | 40.88323 | -6.79483 | 24857 ft | 453 kts | 232° |
| 2026-04-29 17:58 | 40.86427 | -6.82804 | 24839 ft | 454 kts | 231° |
| 2026-04-29 17:58 | 40.84518 | -6.86141 | 24838 ft | 456 kts | 233° |
| 2026-04-29 17:59 | 40.82589 | -6.89511 | 24842 ft | 463 kts | 233° |
| 2026-04-29 17:59 | 40.80633 | -6.92929 | 24843 ft | 468 kts | 233° |
| 2026-04-29 17:59 | 40.78663 | -6.96366 | 24854 ft | 471 kts | 234° |
| 2026-04-29 17:59 | 40.76685 | -6.99810 | 24858 ft | 470 kts | 234° |
| 2026-04-29 18:00 | 40.74713 | -7.03240 | 24860 ft | 470 kts | 234° |
| 2026-04-29 18:00 | 40.72740 | -7.06670 | 24867 ft | 470 kts | 233° |
| 2026-04-29 18:00 | 40.70789 | -7.10056 | 24863 ft | 469 kts | 233° |
| 2026-04-29 18:00 | 40.68789 | -7.13526 | 24882 ft | 470 kts | 234° |
| 2026-04-29 18:01 | 40.66842 | -7.16898 | 24881 ft | 466 kts | 234° |
| 2026-04-29 18:01 | 40.64882 | -7.20289 | 24872 ft | 465 kts | 234° |
| 2026-04-29 18:01 | 40.62918 | -7.23684 | 24855 ft | 465 kts | 234° |
| 2026-04-29 18:01 | 40.60950 | -7.27082 | 24862 ft | 468 kts | 234° |
| 2026-04-29 18:02 | 40.58976 | -7.30488 | 24872 ft | 469 kts | 234° |
| 2026-04-29 18:02 | 40.56988 | -7.33912 | 24866 ft | 469 kts | 234° |
| 2026-04-29 18:02 | 40.55011 | -7.37314 | 24879 ft | 469 kts | 234° |
| 2026-04-29 18:02 | 40.53031 | -7.40719 | 24872 ft | 469 kts | 234° |
| 2026-04-29 18:03 | 40.51042 | -7.44131 | 24871 ft | 469 kts | 234° |
| 2026-04-29 18:03 | 40.49060 | -7.47533 | 24875 ft | 469 kts | 234° |
| 2026-04-29 18:03 | 40.47073 | -7.50936 | 24874 ft | 469 kts | 234° |
| 2026-04-29 18:03 | 40.45091 | -7.54328 | 24874 ft | 469 kts | 234° |
| 2026-04-29 18:04 | 40.43093 | -7.57746 | 24877 ft | 469 kts | 234° |
| 2026-04-29 18:04 | 40.41111 | -7.61130 | 24862 ft | 469 kts | 234° |
| 2026-04-29 18:04 | 40.39146 | -7.64481 | 24876 ft | 468 kts | 234° |
| 2026-04-29 18:04 | 40.37135 | -7.67909 | 24870 ft | 468 kts | 234° |
| 2026-04-29 18:05 | 40.35816 | -7.70155 | 24890 ft | 468 kts | 234° |
| 2026-04-29 18:05 | 40.33182 | -7.74633 | 24886 ft | 468 kts | 234° |
| 2026-04-29 18:05 | 40.31194 | -7.78010 | 24878 ft | 468 kts | 234° |
| 2026-04-29 18:05 | 40.29201 | -7.81391 | 24887 ft | 468 kts | 234° |
| 2026-04-29 18:06 | 40.27208 | -7.84769 | 24887 ft | 468 kts | 234° |
| 2026-04-29 18:06 | 40.25213 | -7.88146 | 24883 ft | 468 kts | 234° |
| 2026-04-29 18:06 | 40.23217 | -7.91522 | 24883 ft | 468 kts | 234° |
| 2026-04-29 18:06 | 40.21226 | -7.94887 | 24886 ft | 468 kts | 234° |
| 2026-04-29 18:07 | 40.19236 | -7.98244 | 24878 ft | 467 kts | 234° |
| 2026-04-29 18:07 | 40.17249 | -8.01594 | 24888 ft | 464 kts | 234° |
| 2026-04-29 18:07 | 40.15272 | -8.04923 | 24884 ft | 463 kts | 234° |
| 2026-04-29 18:07 | 40.13318 | -8.08209 | 24890 ft | 463 kts | 234° |
| 2026-04-29 18:08 | 40.11343 | -8.11530 | 24827 ft | 463 kts | 234° |
| 2026-04-29 18:08 | 40.09374 | -8.14837 | 24220 ft | 458 kts | 234° |
| 2026-04-29 18:08 | 40.07407 | -8.18097 | 23646 ft | 456 kts | 231° |
| 2026-04-29 18:08 | 40.05103 | -8.20927 | 22972 ft | 456 kts | 218° |
| 2026-04-29 18:09 | 40.02585 | -8.23315 | 22340 ft | 453 kts | 219° |
| 2026-04-29 18:09 | 40.00092 | -8.25774 | 21659 ft | 448 kts | 220° |
| 2026-04-29 18:09 | 39.97620 | -8.28237 | 21015 ft | 443 kts | 220° |
| 2026-04-29 18:09 | 39.95191 | -8.30669 | 20377 ft | 438 kts | 220° |
| 2026-04-29 18:10 | 39.92796 | -8.33071 | 19684 ft | 435 kts | 220° |
| 2026-04-29 18:10 | 39.90391 | -8.35481 | 18938 ft | 436 kts | 220° |
| 2026-04-29 18:10 | 39.87979 | -8.37896 | 18224 ft | 437 kts | 220° |
| 2026-04-29 18:10 | 39.85565 | -8.40311 | 17403 ft | 437 kts | 220° |
| 2026-04-29 18:11 | 39.83150 | -8.42725 | 16612 ft | 438 kts | 220° |
| 2026-04-29 18:11 | 39.80753 | -8.45118 | 15850 ft | 426 kts | 220° |
| 2026-04-29 18:11 | 39.78439 | -8.47424 | 15109 ft | 414 kts | 220° |
| 2026-04-29 18:11 | 39.76214 | -8.49641 | 14423 ft | 403 kts | 219° |
| 2026-04-29 18:12 | 39.73985 | -8.51860 | 13707 ft | 393 kts | 219° |
| 2026-04-29 18:12 | 39.71829 | -8.54004 | 12932 ft | 388 kts | 219° |
| 2026-04-29 18:12 | 39.69722 | -8.56100 | 12167 ft | 385 kts | 219° |
| 2026-04-29 18:12 | 39.67608 | -8.58200 | 11408 ft | 379 kts | 219° |
| 2026-04-29 18:13 | 39.65534 | -8.60258 | 10683 ft | 372 kts | 219° |
| 2026-04-29 18:13 | 39.63493 | -8.62284 | 9965 ft | 365 kts | 218° |
| 2026-04-29 18:13 | 39.61491 | -8.64268 | 9206 ft | 359 kts | 218° |
| 2026-04-29 18:13 | 39.59518 | -8.66222 | 8444 ft | 353 kts | 218° |
| 2026-04-29 18:14 | 39.57602 | -8.68118 | 8089 ft | 336 kts | 218° |
| 2026-04-29 18:14 | 39.55807 | -8.69890 | 8072 ft | 311 kts | 218° |
| 2026-04-29 18:14 | 39.54152 | -8.71526 | 8065 ft | 288 kts | 218° |
| 2026-04-29 18:14 | 39.52603 | -8.73053 | 8019 ft | 275 kts | 218° |
| 2026-04-29 18:15 | 39.51083 | -8.74555 | 7971 ft | 274 kts | 219° |
| 2026-04-29 18:15 | 39.49570 | -8.76050 | 7921 ft | 273 kts | 219° |
| 2026-04-29 18:15 | 39.48059 | -8.77540 | 7968 ft | 273 kts | 219° |
| 2026-04-29 18:15 | 39.46572 | -8.79006 | 7947 ft | 265 kts | 218° |
| 2026-04-29 18:16 | 39.45162 | -8.80392 | 7941 ft | 244 kts | 219° |
| 2026-04-29 18:16 | 39.43862 | -8.81670 | 7934 ft | 227 kts | 219° |
| 2026-04-29 18:16 | 39.42624 | -8.82889 | 7918 ft | 222 kts | 219° |
| 2026-04-29 18:16 | 39.41431 | -8.84064 | 7894 ft | 206 kts | 219° |
| 2026-04-29 18:17 | 39.40331 | -8.85145 | 7862 ft | 193 kts | 219° |
| 2026-04-29 18:17 | 39.39262 | -8.86197 | 7881 ft | 194 kts | 219° |
| 2026-04-29 18:17 | 39.38184 | -8.87257 | 7903 ft | 196 kts | 218° |
| 2026-04-29 18:17 | 39.37100 | -8.88322 | 7920 ft | 194 kts | 219° |
| 2026-04-29 18:18 | 39.36031 | -8.89374 | 7891 ft | 194 kts | 219° |
| 2026-04-29 18:18 | 39.34953 | -8.90431 | 7903 ft | 194 kts | 219° |
| 2026-04-29 18:18 | 39.33900 | -8.91465 | 7909 ft | 191 kts | 219° |
| 2026-04-29 18:18 | 39.33183 | -8.92168 | 7889 ft | 192 kts | 219° |
| 2026-04-29 18:19 | 39.31766 | -8.93558 | 7889 ft | 194 kts | 219° |
| 2026-04-29 18:19 | 39.30696 | -8.94609 | 7894 ft | 193 kts | 219° |
| 2026-04-29 18:19 | 39.29620 | -8.95662 | 7903 ft | 193 kts | 219° |
| 2026-04-29 18:19 | 39.28545 | -8.96715 | 7896 ft | 195 kts | 219° |
| 2026-04-29 18:20 | 39.27464 | -8.97773 | 7568 ft | 196 kts | 218° |
| 2026-04-29 18:20 | 39.26734 | -8.98488 | 7206 ft | 200 kts | 218° |
| 2026-04-29 18:20 | 39.25614 | -8.99584 | 6671 ft | 204 kts | 218° |
| 2026-04-29 18:20 | 39.24470 | -9.00703 | 6126 ft | 207 kts | 218° |
| 2026-04-29 18:21 | 39.23309 | -9.01837 | 5533 ft | 211 kts | 218° |
| 2026-04-29 18:21 | 39.22108 | -9.02994 | 4917 ft | 220 kts | 214° |
| 2026-04-29 18:21 | 39.20643 | -9.03651 | 4303 ft | 231 kts | 191° |
| 2026-04-29 18:21 | 39.19023 | -9.03970 | 3718 ft | 237 kts | 192° |
| 2026-04-29 18:22 | 39.17439 | -9.04267 | 3693 ft | 218 kts | 192° |
| 2026-04-29 18:22 | 39.16045 | -9.04522 | 3886 ft | 186 kts | 191° |
| 2026-04-29 18:22 | 39.14785 | -9.04749 | 3989 ft | 181 kts | 192° |
| 2026-04-29 18:22 | 39.13536 | -9.04971 | 4008 ft | 180 kts | 191° |
| 2026-04-29 18:23 | 39.12293 | -9.05191 | 4003 ft | 181 kts | 191° |
| 2026-04-29 18:23 | 39.11045 | -9.05409 | 3988 ft | 181 kts | 192° |
| 2026-04-29 18:23 | 39.09800 | -9.05626 | 3698 ft | 185 kts | 192° |
| 2026-04-29 18:23 | 39.08499 | -9.05852 | 3172 ft | 190 kts | 192° |
| 2026-04-29 18:24 | 39.07234 | -9.06072 | 3016 ft | 178 kts | 192° |
| 2026-04-29 18:24 | 39.06000 | -9.06283 | 3028 ft | 179 kts | 191° |
| 2026-04-29 18:24 | 39.04768 | -9.06497 | 2987 ft | 180 kts | 192° |
| 2026-04-29 18:24 | 39.03524 | -9.06711 | 3018 ft | 180 kts | 192° |
| 2026-04-29 18:25 | 39.02273 | -9.06857 | 2988 ft | 181 kts | 184° |
| 2026-04-29 18:25 | 39.01006 | -9.06785 | 3008 ft | 183 kts | 181° |
| 2026-04-29 18:25 | 38.99735 | -9.06702 | 3012 ft | 183 kts | 181° |
| 2026-04-29 18:25 | 38.98462 | -9.06625 | 2985 ft | 184 kts | 181° |
| 2026-04-29 18:26 | 38.97179 | -9.06548 | 2989 ft | 184 kts | 182° |
| 2026-04-29 18:26 | 38.95897 | -9.06475 | 2983 ft | 183 kts | 182° |
| 2026-04-29 18:26 | 38.94695 | -9.06401 | 3057 ft | 167 kts | 183° |
| 2026-04-29 18:26 | 38.93551 | -9.06336 | 3085 ft | 165 kts | 183° |
| 2026-04-29 18:27 | 38.92408 | -9.06281 | 3050 ft | 164 kts | 188° |
| 2026-04-29 18:27 | 38.91307 | -9.06522 | 2851 ft | 157 kts | 204° |
| 2026-04-29 18:27 | 38.90304 | -9.07043 | 2688 ft | 155 kts | 208° |
| 2026-04-29 18:27 | 38.89315 | -9.07591 | 2487 ft | 156 kts | 209° |
| 2026-04-29 18:28 | 38.88312 | -9.08135 | 2301 ft | 156 kts | 207° |
| 2026-04-29 18:28 | 38.87319 | -9.08666 | 2106 ft | 153 kts | 206° |
| 2026-04-29 18:28 | 38.86335 | -9.09196 | 1900 ft | 155 kts | 207° |
| 2026-04-29 18:28 | 38.85333 | -9.09734 | 1698 ft | 155 kts | 206° |
| 2026-04-29 18:29 | 38.84341 | -9.10263 | 1485 ft | 154 kts | 206° |
| 2026-04-29 18:29 | 38.83685 | -9.10618 | 1348 ft | 154 kts | 206° |
| 2026-04-29 18:29 | 38.82378 | -9.11310 | 1058 ft | 151 kts | 207° |
| 2026-04-29 18:29 | 38.81420 | -9.11852 | 829 ft | 150 kts | 204° |
| 2026-04-29 18:30 | 38.80445 | -9.12329 | 574 ft | 149 kts | 205° |
| 2026-04-29 18:30 | 38.79502 | -9.12859 | 408 ft | 147 kts | 205° |
| 2026-04-29 18:30 | 38.78598 | -9.13344 | 355 ft | 130 kts | 207° |
| 2026-04-29 18:30 | 38.77952 | -9.13693 | 353 ft | 67 kts | 197° |
| 2026-04-29 18:31 | 38.77668 | -9.13756 | 346 ft | 28 kts | 176° |
| 2026-04-29 18:31 | 38.77514 | -9.13752 | 348 ft | 0 kts | 179° |
| 2026-04-29 18:32 | 38.77451 | -9.13750 | 348 ft | 15 kts | 179° |
| 2026-04-29 18:32 | 38.77325 | -9.13789 | 354 ft | 20 kts | 186° |
| 2026-04-29 18:33 | 38.77267 | -9.13689 | 349 ft | 17 kts | 77° |
| 2026-04-29 18:33 | 38.77294 | -9.13516 | 357 ft | 21 kts | 79° |
| 2026-04-29 18:33 | 38.77323 | -9.13343 | 358 ft | 15 kts | 77° |
| 2026-04-29 18:33 | 38.77360 | -9.13219 | 356 ft | 16 kts | 81° |
| 2026-04-29 18:34 | 38.77370 | -9.13157 | 351 ft | 2 kts | 77° |
| 2026-04-29 18:34 | 38.77372 | -9.13148 | 349 ft | 0 kts | 77° |